createdAt,value
2018-12-09T00:01:42.756Z,94649.75
2018-12-09T00:04:15.072Z,94655.86
2018-12-09T00:06:47.843Z,94652.39
2018-12-09T00:09:18.160Z,94656.22
2018-12-09T00:11:48.986Z,94662.59
2018-12-09T00:14:19.318Z,94659.66
2018-12-09T00:16:49.469Z,94654.41
2018-12-09T00:19:19.791Z,94662.38
2018-12-09T00:21:49.971Z,94661.62
2018-12-09T00:24:20.229Z,94662.86
2018-12-09T00:26:50.583Z,94658.66
2018-12-09T00:29:20.915Z,94655.11
2018-12-09T00:31:51.304Z,94660.17
2018-12-09T00:34:21.589Z,94649.00
2018-12-09T00:36:51.937Z,94654.19
2018-12-09T00:39:22.157Z,94658.66
2018-12-09T00:41:52.433Z,94664.90
2018-12-09T00:44:22.608Z,94660.47
2018-12-09T00:46:52.911Z,94652.59
2018-12-09T00:49:23.131Z,94662.20
2018-12-09T00:51:53.353Z,94657.91
2018-12-09T00:54:23.460Z,94663.05
2018-12-09T00:56:53.733Z,94655.34
2018-12-09T00:59:24.624Z,94653.61
2018-12-09T01:01:54.917Z,94654.05
2018-12-09T01:04:25.313Z,94653.47
2018-12-09T01:06:55.574Z,94657.87
2018-12-09T01:09:25.708Z,94648.85
2018-12-09T01:11:55.999Z,94654.28
2018-12-09T01:14:26.256Z,94652.13
2018-12-09T01:16:56.700Z,94655.31
2018-12-09T01:19:26.995Z,94658.75
2018-12-09T01:21:57.274Z,94656.21
2018-12-09T01:24:27.519Z,94649.25
2018-12-09T01:26:57.680Z,94649.03
2018-12-09T01:29:27.982Z,94656.59
2018-12-09T01:31:58.194Z,94651.47
2018-12-09T01:34:28.497Z,94646.20
2018-12-09T01:36:58.760Z,94642.84
2018-12-09T01:39:29.039Z,94639.66
2018-12-09T01:42:00.174Z,94630.13
2018-12-09T01:44:30.715Z,94637.58
2018-12-09T01:47:01.094Z,94636.34
2018-12-09T01:49:31.428Z,94642.84
2018-12-09T01:52:01.594Z,94649.90
2018-12-09T01:54:31.893Z,94639.70
2018-12-09T01:57:02.727Z,94648.12
2018-12-09T01:59:32.962Z,94642.27
2018-12-09T02:02:03.870Z,94631.64
2018-12-09T02:04:34.162Z,94638.98
2018-12-09T02:07:04.595Z,94636.33
2018-12-09T02:09:34.827Z,94630.66
2018-12-09T02:12:05.265Z,94627.22
2018-12-09T02:14:35.670Z,94630.93
2018-12-09T02:17:07.260Z,94624.54
2018-12-09T02:19:38.202Z,94631.36
2018-12-09T02:22:09.072Z,94638.77
2018-12-09T02:24:39.228Z,94635.45
2018-12-09T02:27:09.314Z,94632.73
2018-12-09T02:29:39.513Z,94635.62
2018-12-09T02:32:10.053Z,94634.91
2018-12-09T02:34:46.920Z,94633.53
2018-12-09T02:37:17.228Z,94638.03
2018-12-09T02:39:47.457Z,94636.80
2018-12-09T02:42:17.911Z,94641.72
2018-12-09T02:44:49.306Z,94635.83
2018-12-09T02:47:19.746Z,94634.84
2018-12-09T02:49:50.191Z,94631.75
2018-12-09T02:52:20.557Z,94634.94
2018-12-09T02:54:50.900Z,94633.52
2018-12-09T02:57:21.178Z,94625.88
2018-12-09T02:59:51.418Z,94636.20
2018-12-09T03:02:21.727Z,94634.33
2018-12-09T03:04:52.036Z,94630.97
2018-12-09T03:07:22.301Z,94625.21
2018-12-09T03:09:52.445Z,94623.89
2018-12-09T03:12:22.720Z,94621.23
2018-12-09T03:14:53.035Z,94625.97
2018-12-09T03:17:23.286Z,94631.75
2018-12-09T03:19:53.537Z,94630.91
2018-12-09T03:22:23.938Z,94629.09
2018-12-09T03:24:54.011Z,94632.95
2018-12-09T03:27:24.229Z,94635.97
2018-12-09T03:29:54.559Z,94628.11
2018-12-09T03:32:24.787Z,94631.80
2018-12-09T03:34:55.350Z,94631.93
2018-12-09T03:37:25.633Z,94628.51
2018-12-09T03:39:55.779Z,94631.60
2018-12-09T03:42:26.599Z,94629.65
2018-12-09T03:44:56.833Z,94628.91
2018-12-09T03:47:27.074Z,94628.20
2018-12-09T03:49:57.274Z,94622.75
2018-12-09T03:52:27.851Z,94626.63
2018-12-09T03:54:58.049Z,94626.64
2018-12-09T03:57:28.201Z,94621.76
2018-12-09T03:59:58.480Z,94624.73
2018-12-09T04:02:28.633Z,94632.08
2018-12-09T04:04:59.351Z,94635.44
2018-12-09T04:07:29.604Z,94631.28
2018-12-09T04:09:59.850Z,94631.95
2018-12-09T04:12:30.032Z,94628.70
2018-12-09T04:15:00.317Z,94625.16
2018-12-09T04:17:30.519Z,94625.81
2018-12-09T04:20:00.788Z,94627.63
2018-12-09T04:22:31.057Z,94630.38
2018-12-09T04:25:01.688Z,94628.05
2018-12-09T04:27:31.831Z,94631.26
2018-12-09T04:30:02.013Z,94630.52
2018-12-09T04:32:33.275Z,94631.77
2018-12-09T04:35:03.585Z,94632.50
2018-12-09T04:37:34.219Z,94634.02
2018-12-09T04:40:04.618Z,94631.13
2018-12-09T04:42:34.801Z,94632.30
2018-12-09T04:45:05.325Z,94638.64
2018-12-09T04:47:36.095Z,94630.31
2018-12-09T04:50:07.455Z,94630.38
2018-12-09T04:52:37.858Z,94632.64
2018-12-09T04:55:08.255Z,94630.83
2018-12-09T04:57:40.324Z,94627.80
2018-12-09T05:00:21.536Z,94622.36
2018-12-09T05:02:52.355Z,94618.30
2018-12-09T05:05:22.515Z,94620.37
2018-12-09T05:07:52.737Z,94624.72
2018-12-09T05:10:22.915Z,94626.31
2018-12-09T05:12:53.204Z,94622.34
2018-12-09T05:15:23.452Z,94625.00
2018-12-09T05:17:53.690Z,94627.02
2018-12-09T05:20:24.965Z,94627.39
2018-12-09T05:22:55.032Z,94621.39
2018-12-09T05:25:25.231Z,94621.05
2018-12-09T05:27:55.317Z,94620.34
2018-12-09T05:30:25.669Z,94630.78
2018-12-09T05:32:56.006Z,94634.82
2018-12-09T05:35:26.198Z,94637.76
2018-12-09T05:37:56.521Z,94636.23
2018-12-09T05:40:26.808Z,94642.02
2018-12-09T05:42:56.993Z,94651.81
2018-12-09T05:45:27.596Z,94649.45
2018-12-09T05:47:57.702Z,94653.42
2018-12-09T05:50:27.977Z,94651.53
2018-12-09T05:52:58.172Z,94652.27
2018-12-09T05:55:28.359Z,94658.23
2018-12-09T05:57:58.596Z,94656.96
2018-12-09T06:00:28.828Z,94658.06
2018-12-09T06:02:59.116Z,94656.45
2018-12-09T06:05:29.442Z,94655.48
2018-12-09T06:07:59.680Z,94648.28
2018-12-09T06:10:29.845Z,94650.72
2018-12-09T06:13:00.136Z,94649.50
2018-12-09T06:15:31.028Z,94652.30
2018-12-09T06:18:02.617Z,94652.27
2018-12-09T06:20:33.249Z,94652.94
2018-12-09T06:23:03.368Z,94643.78
2018-12-09T06:25:33.617Z,94640.02
2018-12-09T06:28:04.324Z,94645.97
2018-12-09T06:30:34.711Z,94642.44
2018-12-09T06:33:04.980Z,94627.11
2018-12-09T06:35:35.253Z,94638.13
2018-12-09T06:38:05.635Z,94635.19
2018-12-09T06:40:35.932Z,94640.48
2018-12-09T06:43:06.184Z,94636.88
2018-12-09T06:45:36.449Z,94635.71
2018-12-09T06:48:06.677Z,94633.50
2018-12-09T06:50:36.951Z,94633.35
2018-12-09T06:53:07.211Z,94627.84
2018-12-09T06:55:37.390Z,94628.36
2018-12-09T06:58:07.702Z,94631.01
2018-12-09T07:00:38.321Z,94628.34
2018-12-09T07:03:09.509Z,94624.56
2018-12-09T07:05:39.935Z,94623.44
2018-12-09T07:08:10.243Z,94614.73
2018-12-09T07:10:40.606Z,94627.85
2018-12-09T07:13:10.867Z,94624.55
2018-12-09T07:15:41.065Z,94631.41
2018-12-09T07:18:11.390Z,94631.93
2018-12-09T07:20:41.629Z,94633.31
2018-12-09T07:23:11.963Z,94633.11
2018-12-09T07:25:42.107Z,94628.54
2018-12-09T07:28:12.342Z,94627.20
2018-12-09T07:30:42.599Z,94625.89
2018-12-09T07:33:13.323Z,94623.02
2018-12-09T07:35:43.567Z,94620.14
2018-12-09T07:38:13.867Z,94622.65
2018-12-09T07:40:44.109Z,94624.62
2018-12-09T07:43:14.252Z,94613.04
2018-12-09T07:45:44.596Z,94610.09
2018-12-09T07:48:14.761Z,94607.55
2018-12-09T07:50:45.218Z,94606.36
2018-12-09T07:53:15.510Z,94605.45
2018-12-09T07:55:45.846Z,94603.73
2018-12-09T07:58:16.013Z,94602.23
2018-12-09T08:00:46.294Z,94598.47
2018-12-09T08:03:16.507Z,94602.52
2018-12-09T08:05:46.745Z,94604.68
2018-12-09T08:08:17.120Z,94601.97
2018-12-09T08:10:47.649Z,94599.57
2018-12-09T08:13:17.864Z,94591.41
2018-12-09T08:15:48.179Z,94591.96
2018-12-09T08:18:19.282Z,94588.31
2018-12-09T08:20:49.524Z,94589.56
2018-12-09T08:23:20.778Z,94584.16
2018-12-09T08:25:51.056Z,94586.17
2018-12-09T08:28:21.125Z,94590.91
2018-12-09T08:30:51.332Z,94591.80
2018-12-09T08:33:21.618Z,94580.27
2018-12-09T08:35:51.858Z,94579.69
2018-12-09T08:38:22.073Z,94576.09
2018-12-09T08:40:52.327Z,94568.75
2018-12-09T08:43:22.597Z,94574.59
2018-12-09T08:45:53.162Z,94575.08
2018-12-09T08:48:23.318Z,94567.45
2018-12-09T08:50:53.674Z,94571.63
2018-12-09T08:53:24.039Z,94565.98
2018-12-09T08:55:54.255Z,94567.71
2018-12-09T08:58:24.820Z,94572.91
2018-12-09T09:00:55.047Z,94572.70
2018-12-09T09:03:25.397Z,94565.91
2018-12-09T09:05:55.750Z,94572.06
2018-12-09T09:08:26.193Z,94573.45
2018-12-09T09:10:56.420Z,94562.48
2018-12-09T09:13:26.778Z,94557.92
2018-12-09T09:15:57.214Z,94548.42
2018-12-09T09:18:27.454Z,94548.16
2018-12-09T09:20:57.822Z,94539.77
2018-12-09T09:23:28.241Z,94541.02
2018-12-09T09:25:58.609Z,94531.89
2018-12-09T09:28:28.937Z,94530.63
2018-12-09T09:30:59.293Z,94535.48
2018-12-09T09:33:29.585Z,94529.61
2018-12-09T09:35:59.848Z,94535.23
2018-12-09T09:38:30.308Z,94532.95
2018-12-09T09:41:00.803Z,94531.16
2018-12-09T09:43:31.050Z,94532.85
2018-12-09T09:46:01.172Z,94532.92
2018-12-09T09:48:31.429Z,94531.92
2018-12-09T09:51:01.864Z,94531.98
2018-12-09T09:53:32.267Z,94528.98
2018-12-09T09:56:02.637Z,94531.49
2018-12-09T09:58:33.033Z,94526.56
2018-12-09T10:01:03.207Z,94523.26
2018-12-09T10:03:33.378Z,94517.36
2018-12-09T10:06:03.803Z,94513.69
2018-12-09T10:08:35.085Z,94511.05
2018-12-09T10:11:05.414Z,94501.44
2018-12-09T10:13:35.577Z,94494.30
2018-12-09T10:16:05.896Z,94491.25
2018-12-09T10:18:36.055Z,94490.23
2018-12-09T10:21:07.003Z,94492.19
2018-12-09T10:23:37.322Z,94494.06
2018-12-09T10:26:07.609Z,94497.22
2018-12-09T10:28:37.935Z,94500.41
2018-12-09T10:31:08.394Z,94497.72
2018-12-09T10:33:38.511Z,94485.28
2018-12-09T10:36:08.717Z,94485.42
2018-12-09T10:38:38.987Z,94480.16
2018-12-09T10:41:09.211Z,94479.61
2018-12-09T10:43:40.238Z,94471.14
2018-12-09T10:46:10.465Z,94472.33
2018-12-09T10:48:40.704Z,94472.77
2018-12-09T10:51:11.013Z,94466.48
2018-12-09T10:53:41.372Z,94465.67
2018-12-09T10:56:11.783Z,94463.86
2018-12-09T10:58:42.070Z,94459.35
2018-12-09T11:01:17.633Z,94451.23
2018-12-09T11:03:48.286Z,94450.12
2018-12-09T11:06:19.758Z,94451.11
2018-12-09T11:08:50.057Z,94440.52
2018-12-09T11:11:20.482Z,94440.70
2018-12-09T11:13:57.782Z,94438.84
2018-12-09T11:16:23.950Z,94431.02
2018-12-09T11:18:54.372Z,94435.63
2018-12-09T11:21:30.619Z,94425.39
2018-12-09T11:23:56.879Z,94426.72
2018-12-09T11:26:27.152Z,94424.41
2018-12-09T11:28:57.285Z,94421.09
2018-12-09T11:31:28.572Z,94416.79
2018-12-09T11:33:58.961Z,94410.28
2018-12-09T11:36:29.279Z,94406.05
2018-12-09T11:38:59.541Z,94398.55
2018-12-09T11:41:29.796Z,94401.18
2018-12-09T11:44:00.041Z,94396.91
2018-12-09T11:46:30.189Z,94400.80
2018-12-09T11:49:00.497Z,94399.66
2018-12-09T11:51:30.786Z,94394.49
2018-12-09T11:54:01.214Z,94392.59
2018-12-09T11:56:31.381Z,94392.29
2018-12-09T11:59:01.484Z,94388.47
2018-12-09T12:01:31.797Z,94389.83
2018-12-09T12:04:02.688Z,94382.77
2018-12-09T12:06:33.086Z,94386.10
2018-12-09T12:09:04.713Z,94388.07
2018-12-09T12:11:36.212Z,94395.63
2018-12-09T12:14:06.406Z,94397.59
2018-12-09T12:16:36.761Z,94389.77
2018-12-09T12:19:07.057Z,94378.81
2018-12-09T12:21:37.388Z,94374.70
2018-12-09T12:24:07.424Z,94368.70
2018-12-09T12:26:37.777Z,94367.66
2018-12-09T12:29:08.642Z,94368.59
2018-12-09T12:31:38.990Z,94368.30
2018-12-09T12:34:09.350Z,94367.52
2018-12-09T12:36:39.653Z,94363.27
2018-12-09T12:39:10.000Z,94365.00
2018-12-09T12:41:40.376Z,94352.52
2018-12-09T12:44:10.813Z,94348.84
2018-12-09T12:46:41.253Z,94352.19
2018-12-09T12:49:12.200Z,94356.08
2018-12-09T12:51:43.285Z,94355.06
2018-12-09T12:54:13.876Z,94359.84
2018-12-09T12:56:44.253Z,94361.27
2018-12-09T12:59:14.474Z,94359.23
2018-12-09T13:01:44.787Z,94357.78
2018-12-09T13:04:15.017Z,94358.17
2018-12-09T13:06:45.482Z,94358.66
2018-12-09T13:09:15.894Z,94350.12
2018-12-09T13:11:46.199Z,94347.63
2018-12-09T13:14:16.718Z,94345.63
2018-12-09T13:16:47.167Z,94341.91
2018-12-09T13:19:17.646Z,94333.22
2018-12-09T13:21:47.900Z,94334.84
2018-12-09T13:24:18.359Z,94332.21
2018-12-09T13:26:48.644Z,94337.53
2018-12-09T13:29:19.127Z,94329.95
2018-12-09T13:31:49.391Z,94329.04
2018-12-09T13:34:20.351Z,94324.37
2018-12-09T13:36:50.693Z,94335.52
2018-12-09T13:39:21.348Z,94338.43
2018-12-09T13:41:51.679Z,94337.56
2018-12-09T13:44:22.632Z,94337.09
2018-12-09T13:46:52.765Z,94335.04
2018-12-09T13:49:23.033Z,94326.06
2018-12-09T13:51:53.426Z,94334.55
2018-12-09T13:54:23.539Z,94338.05
2018-12-09T13:56:54.293Z,94337.36
2018-12-09T13:59:24.723Z,94335.34
2018-12-09T14:01:55.038Z,94327.99
2018-12-09T14:04:25.595Z,94321.11
2018-12-09T14:06:56.079Z,94320.19
2018-12-09T14:09:26.522Z,94317.31
2018-12-09T14:11:56.866Z,94312.63
2018-12-09T14:14:27.069Z,94307.94
2018-12-09T14:16:57.261Z,94307.14
2018-12-09T14:19:27.730Z,94315.08
2018-12-09T14:21:58.067Z,94312.03
2018-12-09T14:24:28.641Z,94317.42
2018-12-09T14:26:59.023Z,94315.30
2018-12-09T14:29:29.491Z,94309.77
2018-12-09T14:31:59.907Z,94315.30
2018-12-09T14:34:30.245Z,94310.69
2018-12-09T14:37:01.242Z,94313.08
2018-12-09T14:39:31.534Z,94309.25
2018-12-09T14:42:02.900Z,94304.83
2018-12-09T14:44:33.507Z,94297.94
2018-12-09T14:47:03.936Z,94297.17
2018-12-09T14:49:34.481Z,94298.07
2018-12-09T14:52:04.943Z,94291.37
2018-12-09T14:54:36.193Z,94287.34
2018-12-09T14:57:06.724Z,94290.05
2018-12-09T14:59:37.055Z,94285.12
2018-12-09T15:02:07.561Z,94282.88
2018-12-09T15:04:37.940Z,94283.19
2018-12-09T15:07:08.373Z,94284.30
2018-12-09T15:09:38.619Z,94280.48
2018-12-09T15:12:10.207Z,94285.05
2018-12-09T15:14:40.574Z,94280.61
2018-12-09T15:17:11.488Z,94282.17
2018-12-09T15:19:41.675Z,94281.39
2018-12-09T15:22:12.103Z,94279.11
2018-12-09T15:24:42.419Z,94284.68
2018-12-09T15:27:12.719Z,94283.97
2018-12-09T15:29:43.115Z,94280.50
2018-12-09T15:32:14.145Z,94278.39
2018-12-09T15:34:44.543Z,94281.85
2018-12-09T15:37:15.946Z,94274.11
2018-12-09T15:39:46.270Z,94277.94
2018-12-09T15:42:16.493Z,94270.17
2018-12-09T15:44:46.585Z,94277.58
2018-12-09T15:47:17.029Z,94269.58
2018-12-09T15:49:47.396Z,94266.02
2018-12-09T15:52:17.656Z,94268.47
2018-12-09T15:54:47.912Z,94266.69
2018-12-09T15:57:18.084Z,94275.70
2018-12-09T15:59:48.230Z,94282.28
2018-12-09T16:02:18.349Z,94289.07
2018-12-09T16:04:49.667Z,94287.42
2018-12-09T16:07:20.089Z,94295.78
2018-12-09T16:09:50.397Z,94292.52
2018-12-09T16:12:21.756Z,94285.77
2018-12-09T16:14:52.016Z,94296.86
2018-12-09T16:17:22.288Z,94286.08
2018-12-09T16:19:52.756Z,94294.11
2018-12-09T16:22:23.012Z,94289.41
2018-12-09T16:24:53.221Z,94283.05
2018-12-09T16:27:23.534Z,94285.27
2018-12-09T16:29:53.957Z,94288.94
2018-12-09T16:32:24.146Z,94285.09
2018-12-09T16:34:54.579Z,94274.91
2018-12-09T16:37:25.282Z,94264.28
2018-12-09T16:39:55.682Z,94267.58
2018-12-09T16:42:25.815Z,94267.98
2018-12-09T16:44:56.336Z,94265.72
2018-12-09T16:47:26.550Z,94271.67
2018-12-09T16:49:57.784Z,94269.16
2018-12-09T16:52:28.123Z,94271.97
2018-12-09T16:54:58.567Z,94265.02
2018-12-09T16:57:28.748Z,94272.66
2018-12-09T16:59:59.107Z,94281.94
2018-12-09T17:02:29.298Z,94291.83
2018-12-09T17:04:59.725Z,94283.04
2018-12-09T17:07:30.087Z,94301.09
2018-12-09T17:10:00.441Z,94295.02
2018-12-09T17:12:31.037Z,94302.21
2018-12-09T17:15:01.357Z,94298.59
2018-12-09T17:17:31.822Z,94298.35
2018-12-09T17:20:06.193Z,94309.50
2018-12-09T17:22:34.727Z,94309.01
2018-12-09T17:25:05.409Z,94311.70
2018-12-09T17:27:35.811Z,94304.31
2018-12-09T17:30:07.730Z,94299.91
2018-12-09T17:32:38.803Z,94300.28
2018-12-09T17:35:09.125Z,94303.03
2018-12-09T17:37:39.790Z,94297.78
2018-12-09T17:40:10.078Z,94306.63
2018-12-09T17:42:40.550Z,94308.52
2018-12-09T17:45:10.825Z,94306.41
2018-12-09T17:47:40.971Z,94300.00
2018-12-09T17:50:11.135Z,94309.19
2018-12-09T17:52:41.440Z,94313.61
2018-12-09T17:55:11.643Z,94317.15
2018-12-09T17:57:42.019Z,94313.88
2018-12-09T18:00:12.339Z,94316.26
2018-12-09T18:02:42.560Z,94308.30
2018-12-09T18:05:12.904Z,94312.72
2018-12-09T18:07:43.279Z,94306.80
2018-12-09T18:10:13.501Z,94314.44
2018-12-09T18:12:47.945Z,94309.27
2018-12-09T18:15:20.064Z,94310.29
2018-12-09T18:17:50.674Z,94307.50
2018-12-09T18:20:21.094Z,94317.48
2018-12-09T18:22:51.477Z,94319.56
2018-12-09T18:25:21.755Z,94312.37
2018-12-09T18:27:52.260Z,94309.67
2018-12-09T18:30:23.548Z,94308.30
2018-12-09T18:32:53.759Z,94318.95
2018-12-09T18:35:24.082Z,94311.01
2018-12-09T18:37:55.708Z,94315.41
2018-12-09T18:40:26.390Z,94317.00
2018-12-09T18:42:58.224Z,94309.90
2018-12-09T18:45:29.373Z,94305.91
2018-12-09T18:47:59.750Z,94310.44
2018-12-09T18:50:30.006Z,94303.98
2018-12-09T18:53:00.379Z,94294.91
2018-12-09T18:55:30.808Z,94284.63
2018-12-09T18:58:01.145Z,94290.50
2018-12-09T19:00:31.484Z,94287.72
2018-12-09T19:03:01.828Z,94289.58
2018-12-09T19:05:32.164Z,94289.12
2018-12-09T19:08:02.764Z,94280.51
2018-12-09T19:10:33.446Z,94281.25
2018-12-09T19:13:04.322Z,94281.16
2018-12-09T19:15:35.274Z,94291.73
2018-12-09T19:18:05.592Z,94289.53
2018-12-09T19:20:35.943Z,94291.48
2018-12-09T19:23:06.301Z,94289.22
2018-12-09T19:25:36.743Z,94281.21
2018-12-09T19:28:06.987Z,94278.09
2018-12-09T19:30:37.285Z,94275.92
2018-12-09T19:33:07.569Z,94284.83
2018-12-09T19:35:38.085Z,94288.89
2018-12-09T19:38:08.407Z,94287.00
2018-12-09T19:40:38.809Z,94293.65
2018-12-09T19:43:09.149Z,94299.36
2018-12-09T19:45:39.607Z,94304.91
2018-12-09T19:48:09.875Z,94303.27
2018-12-09T19:50:40.104Z,94310.38
2018-12-09T19:53:10.437Z,94311.92
2018-12-09T19:55:40.918Z,94312.94
2018-12-09T19:58:11.148Z,94311.55
2018-12-09T20:00:41.564Z,94312.30
2018-12-09T20:03:11.958Z,94312.70
2018-12-09T20:05:42.321Z,94307.42
2018-12-09T20:08:12.753Z,94302.05
2018-12-09T20:10:43.260Z,94301.74
2018-12-09T20:13:13.522Z,94306.02
2018-12-09T20:15:43.853Z,94304.09
2018-12-09T20:18:14.178Z,94289.06
2018-12-09T20:20:44.537Z,94294.44
2018-12-09T20:23:14.853Z,94293.48
2018-12-09T20:25:45.154Z,94282.33
2018-12-09T20:28:15.608Z,94280.20
2018-12-09T20:30:45.705Z,94278.74
2018-12-09T20:33:15.902Z,94279.73
2018-12-09T20:35:46.216Z,94274.31
2018-12-09T20:38:16.524Z,94269.91
2018-12-09T20:40:46.946Z,94275.81
2018-12-09T20:43:17.295Z,94271.36
2018-12-09T20:45:47.486Z,94256.35
2018-12-09T20:48:17.765Z,94261.77
2018-12-09T20:50:48.129Z,94254.20
2018-12-09T20:53:18.372Z,94258.86
2018-12-09T20:55:48.913Z,94264.80
2018-12-09T20:58:19.224Z,94263.03
2018-12-09T21:00:49.486Z,94261.27
2018-12-09T21:03:19.916Z,94248.11
2018-12-09T21:05:50.175Z,94258.86
2018-12-09T21:08:20.443Z,94263.84
2018-12-09T21:10:50.817Z,94268.40
2018-12-09T21:13:20.954Z,94278.41
2018-12-09T21:15:53.196Z,94265.75
2018-12-09T21:18:23.478Z,94277.22
2018-12-09T21:20:53.622Z,94266.06
2018-12-09T21:23:23.955Z,94266.56
2018-12-09T21:25:54.189Z,94260.84
2018-12-09T21:28:24.472Z,94268.95
2018-12-09T21:30:54.780Z,94265.05
2018-12-09T21:33:24.948Z,94269.92
2018-12-09T21:35:55.274Z,94262.56
2018-12-09T21:38:25.661Z,94272.00
2018-12-09T21:40:56.052Z,94274.47
2018-12-09T21:43:26.320Z,94273.91
2018-12-09T21:45:56.721Z,94272.48
2018-12-09T21:48:26.986Z,94269.01
2018-12-09T21:50:57.080Z,94255.33
2018-12-09T21:53:27.370Z,94266.96
2018-12-09T21:55:57.818Z,94262.13
2018-12-09T21:58:28.087Z,94259.88
2018-12-09T22:00:58.257Z,94251.48
2018-12-09T22:03:28.408Z,94254.95
2018-12-09T22:05:58.669Z,94252.27
2018-12-09T22:08:29.024Z,94258.27
2018-12-09T22:10:59.398Z,94265.38
2018-12-09T22:13:29.753Z,94268.78
2018-12-09T22:16:00.496Z,94266.16
2018-12-09T22:18:30.778Z,94263.36
2018-12-09T22:21:00.940Z,94257.09
2018-12-09T22:23:32.156Z,94250.05
2018-12-09T22:26:02.516Z,94259.03
2018-12-09T22:28:32.776Z,94261.30
2018-12-09T22:31:03.211Z,94263.07
2018-12-09T22:33:33.295Z,94253.78
2018-12-09T22:36:03.393Z,94257.19
2018-12-09T22:38:33.527Z,94257.77
2018-12-09T22:41:03.768Z,94260.86
2018-12-09T22:43:34.374Z,94258.02
2018-12-09T22:46:04.640Z,94256.03
2018-12-09T22:48:35.396Z,94256.95
2018-12-09T22:51:05.538Z,94247.66
2018-12-09T22:53:35.935Z,94245.39
2018-12-09T22:56:06.216Z,94243.95
2018-12-09T22:58:36.450Z,94242.69
2018-12-09T23:01:12.202Z,94242.34
2018-12-09T23:03:42.236Z,94243.64
2018-12-09T23:06:12.542Z,94244.11
2018-12-09T23:08:42.988Z,94247.67
2018-12-09T23:11:13.325Z,94240.67
2018-12-09T23:13:43.508Z,94240.28
2018-12-09T23:16:13.848Z,94240.00
2018-12-09T23:18:44.008Z,94245.05
2018-12-09T23:21:14.529Z,94238.55
2018-12-09T23:23:44.683Z,94238.84
2018-12-09T23:26:15.378Z,94229.02
2018-12-09T23:28:45.710Z,94227.47
2018-12-09T23:31:16.229Z,94223.41
2018-12-09T23:33:46.484Z,94226.32
2018-12-09T23:36:16.733Z,94227.02
2018-12-09T23:38:46.960Z,94222.02
2018-12-09T23:41:17.151Z,94217.07
2018-12-09T23:43:47.464Z,94221.68
2018-12-09T23:46:17.828Z,94219.55
2018-12-09T23:48:48.097Z,94205.62
2018-12-09T23:51:19.108Z,94214.03
2018-12-09T23:53:49.383Z,94219.02
2018-12-09T23:56:19.713Z,94221.07
2018-12-09T23:58:50.024Z,94215.42
